Posidonia — EACL — position and weather

sailwx.info

Track history (hours):
 
Tides and Currents Weather Stations Pressure Air Temp Water Temp Dewpoint Dewpoint Depression Visibility Wind Speed Wind Dir Waves Ship Positions

Posidonia

Last reported at 2017-Dec-02 23:29 UTC. Time now 2017-Dec-16 03:31 UTC.
Position N 38°50' E 001°26'.
Warning: this ship's position is 13 days out of date.

Length 71 m; draft 3.6 m.

Type: Ship. MMSI: 225444000.

Date/timePositionNaut miles runAvg speedWind from/ knotsBaromVisibWave heightAir tempDewpointWater temp
2017-Dec-02 23:29N 38°50' E 001°26'4 9.0
2017-Dec-02 22:59N 38°55' E 001°26'3 6.7
2017-Dec-02 22:30N 38°52' E 001°26'7 6.7
2017-Dec-02 21:27N 38°45' E 001°25'612.9
2017-Dec-02 21:00N 38°50' E 001°26'4 8.0
2017-Dec-02 20:28N 38°55' E 001°26'0 0.0
2017-Dec-02 20:00N 38°55' E 001°26'0 0.0
2017-Dec-02 19:30N 38°55' E 001°26'0 0.0
2017-Dec-02 18:52N 38°55' E 001°26'0 0.0
2017-Dec-02 18:29N 38°55' E 001°26'0 0.0
2017-Dec-02 17:59N 38°55' E 001°26'0 0.0
2017-Dec-02 17:29N 38°55' E 001°26'0 0.0
2017-Dec-02 16:59N 38°55' E 001°26'0 0.0
2017-Dec-02 16:29N 38°55' E 001°26'0 0.0
2017-Dec-02 15:59N 38°55' E 001°26'0 0.0
2017-Dec-02 15:29N 38°55' E 001°26'0 0.0
2017-Dec-02 14:59N 38°55' E 001°26'0 0.0
2017-Dec-02 14:29N 38°55' E 001°26'0 0.0
2017-Dec-02 13:59N 38°55' E 001°26'0 0.0
2017-Dec-02 13:30N 38°55' E 001°26'0 0.0
2017-Dec-02 12:58N 38°55' E 001°26'0 0.0
2017-Dec-02 12:30N 38°55' E 001°26'0 0.0
2017-Dec-02 12:00N 38°55' E 001°26'0 0.0
2017-Dec-02 11:30N 38°55' E 001°26'0 0.0
2017-Dec-02 11:00N 38°55' E 001°26'0 0.0
2017-Dec-02 10:30N 38°55' E 001°26'0 0.0
2017-Dec-02 10:00N 38°55' E 001°26'0 0.0
2017-Dec-02 09:30N 38°55' E 001°26'0 0.0
2017-Dec-02 09:00N 38°55' E 001°26'1 2.4
2017-Dec-02 08:30N 38°54' E 001°27'713.0
2017-Dec-02 07:58N 38°47' E 001°25'3 2.8
2017-Dec-02 07:01N 38°44' E 001°25'011.3
2017-Dec-02 07:00N 38°45' E 001°25'713.3
2017-Dec-02 06:30N 38°51' E 001°26'4 6.9
2017-Dec-02 05:59N 38°55' E 001°26'0 0.0
2017-Dec-02 05:28N 38°55' E 001°26'0 0.0
2017-Dec-02 04:19N 38°55' E 001°26'0 0.0
2017-Dec-02 03:46N 38°55' E 001°26'0 0.0
2017-Dec-02 03:27N 38°55' E 001°26'0 0.0
2017-Dec-02 02:56N 38°55' E 001°26'0 0.0
2017-Dec-02 01:06N 38°55' E 001°26'0 0.0
2017-Dec-02 00:59N 38°55' E 001°26'0 0.0
2017-Dec-01 23:55N 38°55' E 001°26'0 0.0
2017-Dec-01 22:56N 38°55' E 001°26'0 0.0
2017-Dec-01 22:15N 38°55' E 001°26'0 0.0
2017-Dec-01 22:00N 38°55' E 001°26'0 0.0
2017-Dec-01 19:51N 38°55' E 001°26'0 0.0
2017-Dec-01 19:17N 38°55' E 001°26'0 0.0
2017-Dec-01 18:57N 38°55' E 001°26'0 0.0
2017-Dec-01 18:24N 38°55' E 001°26'0 0.0
2017-Dec-01 17:51N 38°55' E 001°26'0 0.0
2017-Dec-01 17:12N 38°55' E 001°26'0 0.0
2017-Dec-01 16:44N 38°55' E 001°26'0 0.0
2017-Dec-01 16:24N 38°55' E 001°26'0 0.0
2017-Dec-01 15:40N 38°55' E 001°26'1 0.4
2017-Dec-01 12:53N 38°54' E 001°27'9 6.6
2017-Dec-01 11:30N 38°45' E 001°25'612.5
2017-Dec-01 11:00N 38°51' E 001°26'4 2.6
2017-Dec-01 09:29N 38°55' E 001°26'0 0.0
2017-Dec-01 08:58N 38°55' E 001°26'1 1.9
2017-Dec-01 08:21N 38°54' E 001°27'9 6.9
2017-Dec-01 07:02N 38°45' E 001°25'312.1
2017-Dec-01 06:49N 38°47' E 001°25'413.3
2017-Dec-01 06:30N 38°51' E 001°26'4 6.5
2017-Dec-01 05:57N 38°55' E 001°26'0 0.0
2017-Dec-01 05:30N 38°55' E 001°26'0 0.0
2017-Dec-01 04:58N 38°55' E 001°26'0 0.0
2017-Dec-01 04:29N 38°55' E 001°26'0 0.0
2017-Dec-01 04:00N 38°55' E 001°26'0 0.0
2017-Dec-01 03:30N 38°55' E 001°26'0 0.0
2017-Dec-01 02:59N 38°55' E 001°26'0 0.0
2017-Dec-01 02:28N 38°55' E 001°26'0 0.0
2017-Dec-01 01:57N 38°55' E 001°26'0 0.0
2017-Dec-01 01:28N 38°55' E 001°26'0 0.0
2017-Dec-01 01:00N 38°55' E 001°26'0 0.0
2017-Dec-01 00:27N 38°55' E 001°26'0 0.0
2017-Nov-30 23:58N 38°55' E 001°26'0 0.0
2017-Nov-30 23:29N 38°55' E 001°26'0 0.0
2017-Nov-30 22:56N 38°55' E 001°26'510.9
2017-Nov-30 22:30N 38°50' E 001°26'5 6.5
2017-Nov-30 21:40N 38°45' E 001°25'214.3
2017-Nov-30 21:30N 38°47' E 001°25'714.1
2017-Nov-30 21:00N 38°54' E 001°27'1 1.7
2017-Nov-30 20:30N 38°55' E 001°26'0 0.0
2017-Nov-30 19:58N 38°55' E 001°26'0 0.0
2017-Nov-30 19:30N 38°55' E 001°26'0 0.0
2017-Nov-30 18:58N 38°55' E 001°26'0 0.3
2017-Nov-30 18:30N 38°55' E 001°27'812.9
2017-Nov-30 17:52N 38°47' E 001°24'0 0.2
2017-Nov-30 16:46N 38°47' E 001°25'312.7
2017-Nov-30 16:30N 38°50' E 001°26'5 8.1
2017-Nov-30 15:56N 38°55' E 001°26'0 0.0
2017-Nov-30 15:31N 38°55' E 001°26'0 0.0
2017-Nov-30 14:44N 38°55' E 001°26'0 0.0
2017-Nov-30 14:30N 38°55' E 001°26'0 0.0
2017-Nov-30 13:54N 38°55' E 001°26'0 0.0
2017-Nov-30 13:20N 38°55' E 001°26'0 0.2
2017-Nov-30 12:57N 38°55' E 001°26'611.9
2017-Nov-30 12:29N 38°49' E 001°26'5 4.5
2017-Nov-30 11:25N 38°44' E 001°25'612.8
2017-Nov-30 10:59N 38°50' E 001°26'5 5.6
2017-Nov-30 10:07N 38°55' E 001°26'0 0.0
2017-Nov-30 09:49N 38°55' E 001°26'0 0.0
2017-Nov-30 09:25N 38°55' E 001°26'0 0.0
2017-Nov-30 08:54N 38°55' E 001°26'1 1.6
2017-Nov-30 08:25N 38°54' E 001°27'613.4
2017-Nov-30 07:59N 38°48' E 001°25'4 4.3
2017-Nov-30 07:03N 38°44' E 001°25'213.4
2017-Nov-30 06:53N 38°47' E 001°25'513.4
2017-Nov-30 06:30N 38°51' E 001°26'3 6.5
2017-Nov-30 05:59N 38°55' E 001°26'0 0.0
2017-Nov-30 05:30N 38°55' E 001°26'0 0.0
2017-Nov-30 04:59N 38°55' E 001°26'0 0.0
2017-Nov-30 04:29N 38°55' E 001°26'0 0.0
2017-Nov-30 03:58N 38°55' E 001°26'0 0.0
2017-Nov-30 03:30N 38°55' E 001°26'0 0.0
2017-Nov-30 02:57N 38°55' E 001°26'0 0.0
2017-Nov-30 02:29N 38°55' E 001°26'0 0.0
2017-Nov-30 01:59N 38°55' E 001°26'0 0.0
2017-Nov-30 01:29N 38°55' E 001°26'0 0.0
2017-Nov-30 00:57N 38°55' E 001°26'0 0.0
2017-Nov-30 00:27N 38°55' E 001°26'0 0.0
2017-Nov-29 23:59N 38°55' E 001°26'0 0.0
2017-Nov-29 23:30N 38°55' E 001°26'0 0.0
2017-Nov-29 23:01N 38°55' E 001°26'2 3.4
2017-Nov-29 22:27N 38°53' E 001°27'613.7
2017-Nov-29 22:01N 38°47' E 001°25'3 4.3
2017-Nov-29 21:24N 38°44' E 001°25'513.2
2017-Nov-29 20:59N 38°50' E 001°26'5 9.7
2017-Nov-29 20:28N 38°55' E 001°26'0 0.0
2017-Nov-29 19:46N 38°55' E 001°26'0 0.0
2017-Nov-29 19:29N 38°55' E 001°26'0 0.0
2017-Nov-29 18:55N 38°55' E 001°26'0 0.2
2017-Nov-29 18:29N 38°55' E 001°26'5 2.8
2017-Nov-29 16:35N 38°49' E 001°26'113.4
2017-Nov-29 16:28N 38°51' E 001°26'4 8.5
2017-Nov-29 16:00N 38°55' E 001°26'0 0.0
2017-Nov-29 14:31N 38°55' E 001°26'0 0.0
2017-Nov-29 14:20N 38°55' E 001°26'0 0.0
2017-Nov-29 13:48N 38°55' E 001°26'0 0.0
2017-Nov-29 13:29N 38°55' E 001°26'1 1.2
2017-Nov-29 12:48N 38°54' E 001°27'514.0
2017-Nov-29 12:25N 38°49' E 001°25'4 4.1
2017-Nov-29 11:24N 38°44' E 001°25'513.2
2017-Nov-29 10:59N 38°50' E 001°26'510.4
2017-Nov-29 10:30N 38°55' E 001°26'0 0.0
2017-Nov-29 09:57N 38°55' E 001°26'0 0.0
2017-Nov-29 08:33N 38°55' E 001°26'1 3.6
2017-Nov-29 08:19N 38°54' E 001°27'513.9
2017-Nov-29 07:58N 38°49' E 001°26'5 5.1
2017-Nov-29 07:02N 38°44' E 001°25'110.9
2017-Nov-29 06:56N 38°45' E 001°25'512.4
2017-Nov-29 06:30N 38°51' E 001°26'4 6.4
2017-Nov-29 05:53N 38°55' E 001°26'0 0.0
2017-Nov-29 05:03N 38°55' E 001°26'0 0.0
2017-Nov-29 04:34N 38°55' E 001°26'0 0.0
2017-Nov-29 04:15N 38°55' E 001°26'0 0.0
2017-Nov-29 03:57N 38°55' E 001°26'0 0.0
2017-Nov-29 03:16N 38°55' E 001°26'0 0.0
2017-Nov-29 02:57N 38°55' E 001°26'0 0.0
2017-Nov-29 01:54N 38°55' E 001°26'0 0.0
2017-Nov-29 01:28N 38°55' E 001°26'0 0.0
2017-Nov-29 00:57N 38°55' E 001°26'0 0.0
2017-Nov-29 00:26N 38°55' E 001°26'0 0.0
2017-Nov-28 23:55N 38°55' E 001°26'0 0.0
2017-Nov-28 23:21N 38°55' E 001°26'0 0.1
2017-Nov-28 22:39N 38°55' E 001°26'1 9.2
2017-Nov-28 22:30N 38°53' E 001°27'2 1.5
2017-Nov-28 20:53N 38°51' E 001°26'4 9.0
2017-Nov-28 20:27N 38°55' E 001°26'0 0.0
2017-Nov-28 19:00N 38°55' E 001°26'0 0.2
2017-Nov-28 18:27N 38°55' E 001°26'10 7.5
2017-Nov-28 17:04N 38°44' E 001°25'0 3.4
2017-Nov-28 16:58N 38°45' E 001°25'611.0
2017-Nov-28 16:28N 38°50' E 001°26'4 9.6
2017-Nov-28 16:00N 38°55' E 001°26'0 0.0
2017-Nov-28 14:57N 38°55' E 001°26'0 0.0
2017-Nov-28 14:30N 38°55' E 001°26'0 0.0
2017-Nov-28 13:41N 38°55' E 001°26'0 0.0
2017-Nov-28 13:30N 38°55' E 001°26'0 0.2
2017-Nov-28 12:59N 38°55' E 001°26'10 7.2
2017-Nov-28 11:34N 38°45' E 001°25'113.7
2017-Nov-28 11:30N 38°45' E 001°25'612.0
2017-Nov-28 11:00N 38°51' E 001°26'3 6.4
2017-Nov-28 10:27N 38°55' E 001°26'0 0.0
2017-Nov-28 09:27N 38°55' E 001°26'1 0.7
2017-Nov-28 08:21N 38°54' E 001°27'10 7.6
2017-Nov-28 07:05N 38°45' E 001°25'312.3
2017-Nov-28 06:52N 38°47' E 001°25'512.7
2017-Nov-28 06:30N 38°52' E 001°26'3 2.8
2017-Nov-28 05:21N 38°55' E 001°26'0 0.0
2017-Nov-28 04:20N 38°55' E 001°26'0 0.0
2017-Nov-28 03:58N 38°55' E 001°26'0 0.0
2017-Nov-28 03:27N 38°55' E 001°26'0 0.0
2017-Nov-28 02:54N 38°55' E 001°26'0 0.0
2017-Nov-28 02:22N 38°55' E 001°26'0 0.0
2017-Nov-28 02:00N 38°55' E 001°26'0 0.0
2017-Nov-28 00:56N 38°55' E 001°26'0 0.0
2017-Nov-28 00:29N 38°55' E 001°26'0 0.0
2017-Nov-27 23:50N 38°55' E 001°26'0 0.0
2017-Nov-27 23:22N 38°55' E 001°26'0 0.0
2017-Nov-27 22:49N 38°55' E 001°26'2 5.2
2017-Nov-27 22:27N 38°53' E 001°27'2 1.6
2017-Nov-27 20:56N 38°51' E 001°26'4 7.5
2017-Nov-27 20:22N 38°55' E 001°26'0 0.0
2017-Nov-27 19:55N 38°55' E 001°26'0 0.0
2017-Nov-27 19:29N 38°55' E 001°26'0 0.0
2017-Nov-27 19:01N 38°55' E 001°26'0 0.6
2017-Nov-27 18:24N 38°55' E 001°27'8 4.9
2017-Nov-27 16:44N 38°47' E 001°25'412.9
2017-Nov-27 16:28N 38°50' E 001°26'5 7.4
2017-Nov-27 15:49N 38°55' E 001°26'0 0.0
2017-Nov-27 15:21N 38°55' E 001°26'0 0.0
2017-Nov-27 14:59N 38°55' E 001°26'0 0.0
2017-Nov-27 14:22N 38°55' E 001°26'0 0.0
2017-Nov-27 13:33N 38°55' E 001°26'0 0.0
2017-Nov-27 13:25N 38°55' E 001°26'0 0.2
2017-Nov-27 12:53N 38°55' E 001°26'10 6.9
2017-Nov-27 11:22N 38°44' E 001°25'613.9
2017-Nov-27 10:58N 38°50' E 001°26'510.0
2017-Nov-27 10:29N 38°55' E 001°26'0 0.0
2017-Nov-27 09:44N 38°55' E 001°26'0 0.0
2017-Nov-27 09:18N 38°55' E 001°26'0 0.0
2017-Nov-27 09:00N 38°55' E 001°26'0 0.6
2017-Nov-27 08:20N 38°55' E 001°27'513.8
2017-Nov-27 08:00N 38°50' E 001°26'6 6.2
2017-Nov-27 07:05N 38°44' E 001°25'212.4
2017-Nov-27 06:54N 38°47' E 001°25'512.5
2017-Nov-27 06:30N 38°51' E 001°26'3 6.5
2017-Nov-27 05:59N 38°55' E 001°26'0 0.0
2017-Nov-27 05:29N 38°55' E 001°26'0 0.0
2017-Nov-27 05:00N 38°55' E 001°26'0 0.0
2017-Nov-27 04:30N 38°55' E 001°26'0 0.0
2017-Nov-27 03:56N 38°55' E 001°26'0 0.0
2017-Nov-27 03:30N 38°55' E 001°26'0 0.0
2017-Nov-27 02:57N 38°55' E 001°26'0 0.0
2017-Nov-27 02:26N 38°55' E 001°26'0 0.0
2017-Nov-27 01:59N 38°55' E 001°26'0 0.0
2017-Nov-27 01:28N 38°55' E 001°26'0 0.0
2017-Nov-27 00:58N 38°55' E 001°26'0 0.0
2017-Nov-27 00:30N 38°55' E 001°26'0 0.0
2017-Nov-27 00:00N 38°55' E 001°26'0 0.0
2017-Nov-26 23:30N 38°55' E 001°26'0 0.0
2017-Nov-26 23:00N 38°55' E 001°26'1 1.8
2017-Nov-26 22:30N 38°54' E 001°27'9 8.2
2017-Nov-26 21:22N 38°45' E 001°25'513.0
2017-Nov-26 20:59N 38°50' E 001°26'510.6
2017-Nov-26 20:30N 38°55' E 001°26'0 0.0
2017-Nov-26 20:00N 38°55' E 001°26'0 0.0
2017-Nov-26 19:29N 38°55' E 001°26'0 0.0
2017-Nov-26 18:57N 38°55' E 001°26'0 0.0
2017-Nov-26 18:27N 38°55' E 001°26'0 0.0
2017-Nov-26 18:00N 38°55' E 001°26'0 0.0
2017-Nov-26 17:29N 38°55' E 001°26'0 0.0
2017-Nov-26 17:00N 38°55' E 001°26'0 0.0
2017-Nov-26 16:30N 38°55' E 001°26'0 0.0
2017-Nov-26 16:00N 38°55' E 001°26'0 0.0
2017-Nov-26 15:30N 38°55' E 001°26'0 0.0
2017-Nov-26 14:53N 38°55' E 001°26'0 0.0
2017-Nov-26 14:27N 38°55' E 001°26'0 0.0
2017-Nov-26 13:59N 38°55' E 001°26'0 0.0
2017-Nov-26 13:30N 38°55' E 001°26'0 0.0
2017-Nov-26 12:56N 38°55' E 001°26'0 0.0
2017-Nov-26 12:30N 38°55' E 001°26'0 0.0
2017-Nov-26 11:58N 38°55' E 001°26'0 0.0
2017-Nov-26 11:29N 38°55' E 001°26'0 0.0
2017-Nov-26 11:00N 38°55' E 001°26'0 0.0
2017-Nov-26 10:26N 38°55' E 001°26'0 0.0
2017-Nov-26 09:55N 38°55' E 001°26'0 0.4
2017-Nov-26 09:29N 38°55' E 001°27'612.6
2017-Nov-26 08:59N 38°49' E 001°25'4 3.7
2017-Nov-26 07:54N 38°44' E 001°25'513.4
2017-Nov-26 07:30N 38°50' E 001°26'5 9.5
2017-Nov-26 06:58N 38°55' E 001°26'0 0.0
2017-Nov-26 06:30N 38°55' E 001°26'0 0.0
2017-Nov-26 06:00N 38°55' E 001°26'0 0.0
2017-Nov-26 05:26N 38°55' E 001°26'0 0.0
2017-Nov-26 04:56N 38°55' E 001°26'0 0.0
2017-Nov-26 04:25N 38°55' E 001°26'0 0.0
2017-Nov-26 03:59N 38°55' E 001°26'0 0.0
2017-Nov-26 03:30N 38°55' E 001°26'0 0.0
2017-Nov-26 02:59N 38°55' E 001°26'0 0.0
2017-Nov-26 02:29N 38°55' E 001°26'0 0.0
2017-Nov-26 01:59N 38°55' E 001°26'0 0.0
2017-Nov-26 01:30N 38°55' E 001°26'0 0.0
2017-Nov-26 00:56N 38°55' E 001°26'0 0.0
2017-Nov-26 00:25N 38°55' E 001°26'0 0.0
2017-Nov-25 23:59N 38°55' E 001°26'0 0.0
2017-Nov-25 23:27N 38°55' E 001°26'0 0.0
2017-Nov-25 22:59N 38°55' E 001°26'3 7.3
2017-Nov-25 22:30N 38°51' E 001°26'7 6.1
2017-Nov-25 21:24N 38°45' E 001°25'613.2
2017-Nov-25 20:58N 38°50' E 001°26'4 9.1
2017-Nov-25 20:29N 38°55' E 001°26'0 0.0
2017-Nov-25 19:58N 38°55' E 001°26'0 0.0
2017-Nov-25 19:29N 38°55' E 001°26'0 0.0
2017-Nov-25 18:53N 38°55' E 001°26'0 0.0
2017-Nov-25 18:26N 38°55' E 001°26'0 0.0
2017-Nov-25 17:38N 38°55' E 001°26'0 0.0
2017-Nov-25 17:25N 38°55' E 001°26'0 0.0
2017-Nov-25 16:58N 38°55' E 001°26'0 0.0
2017-Nov-25 16:07N 38°55' E 001°26'0 0.0
2017-Nov-25 15:58N 38°55' E 001°26'0 0.0
2017-Nov-25 15:20N 38°55' E 001°26'0 0.0
2017-Nov-25 14:48N 38°55' E 001°26'0 0.0
2017-Nov-25 14:25N 38°55' E 001°26'0 0.0
2017-Nov-25 13:54N 38°55' E 001°26'0 0.0
2017-Nov-25 13:24N 38°55' E 001°26'0 0.0
2017-Nov-25 12:57N 38°55' E 001°26'0 0.0
2017-Nov-25 12:30N 38°55' E 001°26'0 0.0
2017-Nov-25 11:59N 38°55' E 001°26'0 0.0
2017-Nov-25 10:58N 38°55' E 001°26'0 0.0
2017-Nov-25 09:41N 38°55' E 001°26'0 0.0
2017-Nov-25 09:29N 38°55' E 001°26'0 0.0
2017-Nov-25 08:58N 38°55' E 001°26'1 2.1
2017-Nov-25 08:20N 38°53' E 001°27'514.4
2017-Nov-25 08:00N 38°49' E 001°25'4 4.6
2017-Nov-25 07:03N 38°44' E 001°25'311.6
2017-Nov-25 06:49N 38°47' E 001°25'412.2
2017-Nov-25 06:29N 38°51' E 001°26'4 7.7
2017-Nov-25 05:59N 38°55' E 001°26'0 0.0
2017-Nov-25 05:18N 38°55' E 001°26'0 0.0
2017-Nov-25 04:53N 38°55' E 001°26'0 0.0
2017-Nov-25 04:25N 38°55' E 001°26'0 0.0
2017-Nov-25 02:29N 38°55' E 001°26'0 0.0
2017-Nov-25 01:57N 38°55' E 001°26'0 0.0
2017-Nov-25 01:30N 38°55' E 001°26'0 0.0
2017-Nov-25 00:45N 38°55' E 001°26'0 0.0
2017-Nov-25 00:28N 38°55' E 001°26'0 0.0
2017-Nov-24 23:59N 38°55' E 001°26'0 0.0
2017-Nov-24 23:29N 38°55' E 001°26'0 0.0
2017-Nov-24 22:57N 38°55' E 001°26'3 5.8
2017-Nov-24 22:28N 38°52' E 001°26'4 3.3
2017-Nov-24 21:10N 38°48' E 001°25'213.9
2017-Nov-24 21:00N 38°50' E 001°26'5 3.2
2017-Nov-24 19:32N 38°55' E 001°26'0 0.0
2017-Nov-24 19:28N 38°55' E 001°26'0 0.0
2017-Nov-24 18:41N 38°55' E 001°26'0 0.3
2017-Nov-24 18:24N 38°55' E 001°26'612.8
2017-Nov-24 17:56N 38°49' E 001°25'5 5.0
2017-Nov-24 17:00N 38°44' E 001°25'611.1
2017-Nov-24 16:29N 38°50' E 001°26'5 9.4
2017-Nov-24 15:59N 38°55' E 001°26'0 0.0
2017-Nov-24 15:09N 38°55' E 001°26'0 0.0
2017-Nov-24 14:57N 38°55' E 001°26'0 0.0
2017-Nov-24 14:26N 38°55' E 001°26'0 0.0
2017-Nov-24 13:59N 38°55' E 001°26'0 0.0
2017-Nov-24 13:22N 38°55' E 001°26'0 0.0
2017-Nov-24 12:59N 38°55' E 001°26'510.4
2017-Nov-24 12:30N 38°50' E 001°26'1 0.4
2017-Nov-24 11:00N 38°50' E 001°26'4 5.5
2017-Nov-24 10:11N 38°55' E 001°26'0 0.0
2017-Nov-24 10:00N 38°55' E 001°26'0 0.0
2017-Nov-24 09:27N 38°55' E 001°26'0 0.0
2017-Nov-24 08:57N 38°55' E 001°26'0 0.0
2017-Nov-24 08:29N 38°55' E 001°26'4 8.9
2017-Nov-24 08:00N 38°51' E 001°26'613.3
2017-Nov-24 07:30N 38°44' E 001°25'3 4.4
2017-Nov-24 06:49N 38°47' E 001°25'412.1
2017-Nov-24 06:30N 38°51' E 001°26'4 7.9
2017-Nov-24 05:59N 38°55' E 001°26'0 0.0
2017-Nov-24 05:27N 38°55' E 001°26'0 0.0
2017-Nov-24 04:59N 38°55' E 001°26'0 0.0
2017-Nov-24 04:29N 38°55' E 001°26'0 0.0
2017-Nov-24 03:56N 38°55' E 001°26'0 0.0
2017-Nov-24 03:30N 38°55' E 001°26'0 0.0
2017-Nov-24 02:56N 38°55' E 001°26'0 0.0
2017-Nov-24 02:30N 38°55' E 001°26'0 0.0
2017-Nov-24 02:00N 38°55' E 001°26'0 0.0
2017-Nov-24 01:26N 38°55' E 001°26'0 0.0
2017-Nov-24 00:58N 38°55' E 001°26'0 0.0
2017-Nov-24 00:28N 38°55' E 001°26'0 0.0
2017-Nov-23 23:59N 38°55' E 001°26'0 0.0
2017-Nov-23 23:25N 38°55' E 001°26'0 0.0
2017-Nov-23 22:57N 38°55' E 001°26'1 2.4
2017-Nov-23 22:29N 38°54' E 001°27'714.1
2017-Nov-23 21:59N 38°47' E 001°25'2 3.7
2017-Nov-23 21:23N 38°45' E 001°25'613.1
2017-Nov-23 20:56N 38°50' E 001°26'510.2
2017-Nov-23 20:30N 38°55' E 001°26'0 0.0
2017-Nov-23 19:56N 38°55' E 001°26'0 0.0
2017-Nov-23 19:29N 38°55' E 001°26'0 0.0
2017-Nov-23 19:00N 38°55' E 001°26'0 0.0
2017-Nov-23 18:29N 38°55' E 001°26'611.6
2017-Nov-23 17:58N 38°49' E 001°25'5 9.5
2017-Nov-23 17:28N 38°44' E 001°25'2 2.9
2017-Nov-23 16:50N 38°46' E 001°25'412.0
2017-Nov-23 16:28N 38°50' E 001°26'5 9.9
2017-Nov-23 16:00N 38°55' E 001°26'0 0.0
2017-Nov-23 15:21N 38°55' E 001°26'0 0.0
2017-Nov-23 14:55N 38°55' E 001°26'0 0.0
2017-Nov-23 13:18N 38°55' E 001°26'0 0.3
2017-Nov-23 12:58N 38°55' E 001°26'611.5
2017-Nov-23 12:30N 38°49' E 001°26'5 4.2
2017-Nov-23 11:22N 38°45' E 001°25'513.2
2017-Nov-23 10:59N 38°50' E 001°26'5 6.3
2017-Nov-23 10:10N 38°55' E 001°26'0 0.0
2017-Nov-23 09:59N 38°55' E 001°26'0 0.0
2017-Nov-23 09:28N 38°55' E 001°26'0 0.1
2017-Nov-23 08:20N 38°55' E 001°27'412.6
2017-Nov-23 08:01N 38°51' E 001°26'6 6.3
2017-Nov-23 07:01N 38°44' E 001°25'0 6.8
2017-Nov-23 06:59N 38°45' E 001°25'611.8
2017-Nov-23 06:30N 38°50' E 001°26'5 8.8
2017-Nov-23 05:59N 38°55' E 001°26'0 0.0
2017-Nov-23 05:28N 38°55' E 001°26'0 0.0
2017-Nov-23 04:59N 38°55' E 001°26'0 0.0
2017-Nov-23 04:29N 38°55' E 001°26'0 0.0
2017-Nov-23 03:56N 38°55' E 001°26'0 0.0
2017-Nov-23 03:30N 38°55' E 001°26'0 0.0
2017-Nov-23 03:00N 38°55' E 001°26'0 0.0
2017-Nov-23 02:29N 38°55' E 001°26'0 0.0
2017-Nov-23 01:59N 38°55' E 001°26'0 0.0
2017-Nov-23 01:30N 38°55' E 001°26'0 0.0
2017-Nov-23 00:58N 38°55' E 001°26'0 0.0
2017-Nov-23 00:30N 38°55' E 001°26'0 0.0
2017-Nov-22 23:58N 38°55' E 001°26'  
Track history (hours):
 
Tides and Currents Weather Stations Pressure Air Temp Water Temp Dewpoint Dewpoint Depression Visibility Wind Speed Wind Dir Waves Ship Positions

Posidonia

Last reported at 2017-Dec-02 23:29 UTC. Time now 2017-Dec-16 03:31 UTC.
Position N 38°50' E 001°26'.
Warning: this ship's position is 13 days out of date.

Length 71 m; draft 3.6 m.

Type: Ship. MMSI: 225444000.

Date/timePositionNaut miles runAvg speedWind from/ knotsBaromVisibWave heightAir tempDewpointWater temp
2017-Dec-02 23:29N 38°50' E 001°26'4 9.0
2017-Dec-02 22:59N 38°55' E 001°26'3 6.7
2017-Dec-02 22:30N 38°52' E 001°26'7 6.7
2017-Dec-02 21:27N 38°45' E 001°25'612.9
2017-Dec-02 21:00N 38°50' E 001°26'4 8.0
2017-Dec-02 20:28N 38°55' E 001°26'0 0.0
2017-Dec-02 20:00N 38°55' E 001°26'0 0.0
2017-Dec-02 19:30N 38°55' E 001°26'0 0.0
2017-Dec-02 18:52N 38°55' E 001°26'0 0.0
2017-Dec-02 18:29N 38°55' E 001°26'0 0.0
2017-Dec-02 17:59N 38°55' E 001°26'0 0.0
2017-Dec-02 17:29N 38°55' E 001°26'0 0.0
2017-Dec-02 16:59N 38°55' E 001°26'0 0.0
2017-Dec-02 16:29N 38°55' E 001°26'0 0.0
2017-Dec-02 15:59N 38°55' E 001°26'0 0.0
2017-Dec-02 15:29N 38°55' E 001°26'0 0.0
2017-Dec-02 14:59N 38°55' E 001°26'0 0.0
2017-Dec-02 14:29N 38°55' E 001°26'0 0.0
2017-Dec-02 13:59N 38°55' E 001°26'0 0.0
2017-Dec-02 13:30N 38°55' E 001°26'0 0.0
2017-Dec-02 12:58N 38°55' E 001°26'0 0.0
2017-Dec-02 12:30N 38°55' E 001°26'0 0.0
2017-Dec-02 12:00N 38°55' E 001°26'0 0.0
2017-Dec-02 11:30N 38°55' E 001°26'0 0.0
2017-Dec-02 11:00N 38°55' E 001°26'0 0.0
2017-Dec-02 10:30N 38°55' E 001°26'0 0.0
2017-Dec-02 10:00N 38°55' E 001°26'0 0.0
2017-Dec-02 09:30N 38°55' E 001°26'0 0.0
2017-Dec-02 09:00N 38°55' E 001°26'1 2.4
2017-Dec-02 08:30N 38°54' E 001°27'713.0
2017-Dec-02 07:58N 38°47' E 001°25'3 2.8
2017-Dec-02 07:01N 38°44' E 001°25'011.3
2017-Dec-02 07:00N 38°45' E 001°25'713.3
2017-Dec-02 06:30N 38°51' E 001°26'4 6.9
2017-Dec-02 05:59N 38°55' E 001°26'0 0.0
2017-Dec-02 05:28N 38°55' E 001°26'0 0.0
2017-Dec-02 04:19N 38°55' E 001°26'0 0.0
2017-Dec-02 03:46N 38°55' E 001°26'0 0.0
2017-Dec-02 03:27N 38°55' E 001°26'0 0.0
2017-Dec-02 02:56N 38°55' E 001°26'0 0.0
2017-Dec-02 01:06N 38°55' E 001°26'0 0.0
2017-Dec-02 00:59N 38°55' E 001°26'0 0.0
2017-Dec-01 23:55N 38°55' E 001°26'0 0.0
2017-Dec-01 22:56N 38°55' E 001°26'0 0.0
2017-Dec-01 22:15N 38°55' E 001°26'0 0.0
2017-Dec-01 22:00N 38°55' E 001°26'0 0.0
2017-Dec-01 19:51N 38°55' E 001°26'0 0.0
2017-Dec-01 19:17N 38°55' E 001°26'0 0.0
2017-Dec-01 18:57N 38°55' E 001°26'0 0.0
2017-Dec-01 18:24N 38°55' E 001°26'0 0.0
2017-Dec-01 17:51N 38°55' E 001°26'0 0.0
2017-Dec-01 17:12N 38°55' E 001°26'0 0.0
2017-Dec-01 16:44N 38°55' E 001°26'0 0.0
2017-Dec-01 16:24N 38°55' E 001°26'0 0.0
2017-Dec-01 15:40N 38°55' E 001°26'1 0.4
2017-Dec-01 12:53N 38°54' E 001°27'9 6.6
2017-Dec-01 11:30N 38°45' E 001°25'612.5
2017-Dec-01 11:00N 38°51' E 001°26'4 2.6
2017-Dec-01 09:29N 38°55' E 001°26'0 0.0
2017-Dec-01 08:58N 38°55' E 001°26'1 1.9
2017-Dec-01 08:21N 38°54' E 001°27'9 6.9
2017-Dec-01 07:02N 38°45' E 001°25'312.1
2017-Dec-01 06:49N 38°47' E 001°25'413.3
2017-Dec-01 06:30N 38°51' E 001°26'4 6.5
2017-Dec-01 05:57N 38°55' E 001°26'0 0.0
2017-Dec-01 05:30N 38°55' E 001°26'0 0.0
2017-Dec-01 04:58N 38°55' E 001°26'0 0.0
2017-Dec-01 04:29N 38°55' E 001°26'0 0.0
2017-Dec-01 04:00N 38°55' E 001°26'0 0.0
2017-Dec-01 03:30N 38°55' E 001°26'0 0.0
2017-Dec-01 02:59N 38°55' E 001°26'0 0.0
2017-Dec-01 02:28N 38°55' E 001°26'0 0.0
2017-Dec-01 01:57N 38°55' E 001°26'0 0.0
2017-Dec-01 01:28N 38°55' E 001°26'0 0.0
2017-Dec-01 01:00N 38°55' E 001°26'0 0.0
2017-Dec-01 00:27N 38°55' E 001°26'0 0.0
2017-Nov-30 23:58N 38°55' E 001°26'0 0.0
2017-Nov-30 23:29N 38°55' E 001°26'0 0.0
2017-Nov-30 22:56N 38°55' E 001°26'510.9
2017-Nov-30 22:30N 38°50' E 001°26'5 6.5
2017-Nov-30 21:40N 38°45' E 001°25'214.3
2017-Nov-30 21:30N 38°47' E 001°25'714.1
2017-Nov-30 21:00N 38°54' E 001°27'1 1.7
2017-Nov-30 20:30N 38°55' E 001°26'0 0.0
2017-Nov-30 19:58N 38°55' E 001°26'0 0.0
2017-Nov-30 19:30N 38°55' E 001°26'0 0.0
2017-Nov-30 18:58N 38°55' E 001°26'0 0.3
2017-Nov-30 18:30N 38°55' E 001°27'812.9
2017-Nov-30 17:52N 38°47' E 001°24'0 0.2
2017-Nov-30 16:46N 38°47' E 001°25'312.7
2017-Nov-30 16:30N 38°50' E 001°26'5 8.1
2017-Nov-30 15:56N 38°55' E 001°26'0 0.0
2017-Nov-30 15:31N 38°55' E 001°26'0 0.0
2017-Nov-30 14:44N 38°55' E 001°26'0 0.0
2017-Nov-30 14:30N 38°55' E 001°26'0 0.0
2017-Nov-30 13:54N 38°55' E 001°26'0 0.0
2017-Nov-30 13:20N 38°55' E 001°26'0 0.2
2017-Nov-30 12:57N 38°55' E 001°26'611.9
2017-Nov-30 12:29N 38°49' E 001°26'5 4.5
2017-Nov-30 11:25N 38°44' E 001°25'612.8
2017-Nov-30 10:59N 38°50' E 001°26'5 5.6
2017-Nov-30 10:07N 38°55' E 001°26'0 0.0
2017-Nov-30 09:49N 38°55' E 001°26'0 0.0
2017-Nov-30 09:25N 38°55' E 001°26'0 0.0
2017-Nov-30 08:54N 38°55' E 001°26'1 1.6
2017-Nov-30 08:25N 38°54' E 001°27'613.4
2017-Nov-30 07:59N 38°48' E 001°25'4 4.3
2017-Nov-30 07:03N 38°44' E 001°25'213.4
2017-Nov-30 06:53N 38°47' E 001°25'513.4
2017-Nov-30 06:30N 38°51' E 001°26'3 6.5
2017-Nov-30 05:59N 38°55' E 001°26'0 0.0
2017-Nov-30 05:30N 38°55' E 001°26'0 0.0
2017-Nov-30 04:59N 38°55' E 001°26'0 0.0
2017-Nov-30 04:29N 38°55' E 001°26'0 0.0
2017-Nov-30 03:58N 38°55' E 001°26'0 0.0
2017-Nov-30 03:30N 38°55' E 001°26'0 0.0
2017-Nov-30 02:57N 38°55' E 001°26'0 0.0
2017-Nov-30 02:29N 38°55' E 001°26'0 0.0
2017-Nov-30 01:59N 38°55' E 001°26'0 0.0
2017-Nov-30 01:29N 38°55' E 001°26'0 0.0
2017-Nov-30 00:57N 38°55' E 001°26'0 0.0
2017-Nov-30 00:27N 38°55' E 001°26'0 0.0
2017-Nov-29 23:59N 38°55' E 001°26'0 0.0
2017-Nov-29 23:30N 38°55' E 001°26'0 0.0
2017-Nov-29 23:01N 38°55' E 001°26'2 3.4
2017-Nov-29 22:27N 38°53' E 001°27'613.7
2017-Nov-29 22:01N 38°47' E 001°25'3 4.3
2017-Nov-29 21:24N 38°44' E 001°25'513.2
2017-Nov-29 20:59N 38°50' E 001°26'5 9.7
2017-Nov-29 20:28N 38°55' E 001°26'0 0.0
2017-Nov-29 19:46N 38°55' E 001°26'0 0.0
2017-Nov-29 19:29N 38°55' E 001°26'0 0.0
2017-Nov-29 18:55N 38°55' E 001°26'0 0.2
2017-Nov-29 18:29N 38°55' E 001°26'5 2.8
2017-Nov-29 16:35N 38°49' E 001°26'113.4
2017-Nov-29 16:28N 38°51' E 001°26'4 8.5
2017-Nov-29 16:00N 38°55' E 001°26'0 0.0
2017-Nov-29 14:31N 38°55' E 001°26'0 0.0
2017-Nov-29 14:20N 38°55' E 001°26'0 0.0
2017-Nov-29 13:48N 38°55' E 001°26'0 0.0
2017-Nov-29 13:29N 38°55' E 001°26'1 1.2
2017-Nov-29 12:48N 38°54' E 001°27'514.0
2017-Nov-29 12:25N 38°49' E 001°25'4 4.1
2017-Nov-29 11:24N 38°44' E 001°25'513.2
2017-Nov-29 10:59N 38°50' E 001°26'510.4
2017-Nov-29 10:30N 38°55' E 001°26'0 0.0
2017-Nov-29 09:57N 38°55' E 001°26'0 0.0
2017-Nov-29 08:33N 38°55' E 001°26'1 3.6
2017-Nov-29 08:19N 38°54' E 001°27'513.9
2017-Nov-29 07:58N 38°49' E 001°26'5 5.1
2017-Nov-29 07:02N 38°44' E 001°25'110.9
2017-Nov-29 06:56N 38°45' E 001°25'512.4
2017-Nov-29 06:30N 38°51' E 001°26'4 6.4
2017-Nov-29 05:53N 38°55' E 001°26'0 0.0
2017-Nov-29 05:03N 38°55' E 001°26'0 0.0
2017-Nov-29 04:34N 38°55' E 001°26'0 0.0
2017-Nov-29 04:15N 38°55' E 001°26'0 0.0
2017-Nov-29 03:57N 38°55' E 001°26'0 0.0
2017-Nov-29 03:16N 38°55' E 001°26'0 0.0
2017-Nov-29 02:57N 38°55' E 001°26'0 0.0
2017-Nov-29 01:54N 38°55' E 001°26'0 0.0
2017-Nov-29 01:28N 38°55' E 001°26'0 0.0
2017-Nov-29 00:57N 38°55' E 001°26'0 0.0
2017-Nov-29 00:26N 38°55' E 001°26'0 0.0
2017-Nov-28 23:55N 38°55' E 001°26'0 0.0
2017-Nov-28 23:21N 38°55' E 001°26'0 0.1
2017-Nov-28 22:39N 38°55' E 001°26'1 9.2
2017-Nov-28 22:30N 38°53' E 001°27'2 1.5
2017-Nov-28 20:53N 38°51' E 001°26'4 9.0
2017-Nov-28 20:27N 38°55' E 001°26'0 0.0
2017-Nov-28 19:00N 38°55' E 001°26'0 0.2
2017-Nov-28 18:27N 38°55' E 001°26'10 7.5
2017-Nov-28 17:04N 38°44' E 001°25'0 3.4
2017-Nov-28 16:58N 38°45' E 001°25'611.0
2017-Nov-28 16:28N 38°50' E 001°26'4 9.6
2017-Nov-28 16:00N 38°55' E 001°26'0 0.0
2017-Nov-28 14:57N 38°55' E 001°26'0 0.0
2017-Nov-28 14:30N 38°55' E 001°26'0 0.0
2017-Nov-28 13:41N 38°55' E 001°26'0 0.0
2017-Nov-28 13:30N 38°55' E 001°26'0 0.2
2017-Nov-28 12:59N 38°55' E 001°26'10 7.2
2017-Nov-28 11:34N 38°45' E 001°25'113.7
2017-Nov-28 11:30N 38°45' E 001°25'612.0
2017-Nov-28 11:00N 38°51' E 001°26'3 6.4
2017-Nov-28 10:27N 38°55' E 001°26'0 0.0
2017-Nov-28 09:27N 38°55' E 001°26'1 0.7
2017-Nov-28 08:21N 38°54' E 001°27'10 7.6
2017-Nov-28 07:05N 38°45' E 001°25'312.3
2017-Nov-28 06:52N 38°47' E 001°25'512.7
2017-Nov-28 06:30N 38°52' E 001°26'3 2.8
2017-Nov-28 05:21N 38°55' E 001°26'0 0.0
2017-Nov-28 04:20N 38°55' E 001°26'0 0.0
2017-Nov-28 03:58N 38°55' E 001°26'0 0.0
2017-Nov-28 03:27N 38°55' E 001°26'0 0.0
2017-Nov-28 02:54N 38°55' E 001°26'0 0.0
2017-Nov-28 02:22N 38°55' E 001°26'0 0.0
2017-Nov-28 02:00N 38°55' E 001°26'0 0.0
2017-Nov-28 00:56N 38°55' E 001°26'0 0.0
2017-Nov-28 00:29N 38°55' E 001°26'0 0.0
2017-Nov-27 23:50N 38°55' E 001°26'0 0.0
2017-Nov-27 23:22N 38°55' E 001°26'0 0.0
2017-Nov-27 22:49N 38°55' E 001°26'2 5.2
2017-Nov-27 22:27N 38°53' E 001°27'2 1.6
2017-Nov-27 20:56N 38°51' E 001°26'4 7.5
2017-Nov-27 20:22N 38°55' E 001°26'0 0.0
2017-Nov-27 19:55N 38°55' E 001°26'0 0.0
2017-Nov-27 19:29N 38°55' E 001°26'0 0.0
2017-Nov-27 19:01N 38°55' E 001°26'0 0.6
2017-Nov-27 18:24N 38°55' E 001°27'8 4.9
2017-Nov-27 16:44N 38°47' E 001°25'412.9
2017-Nov-27 16:28N 38°50' E 001°26'5 7.4
2017-Nov-27 15:49N 38°55' E 001°26'0 0.0
2017-Nov-27 15:21N 38°55' E 001°26'0 0.0
2017-Nov-27 14:59N 38°55' E 001°26'0 0.0
2017-Nov-27 14:22N 38°55' E 001°26'0 0.0
2017-Nov-27 13:33N 38°55' E 001°26'0 0.0
2017-Nov-27 13:25N 38°55' E 001°26'0 0.2
2017-Nov-27 12:53N 38°55' E 001°26'10 6.9
2017-Nov-27 11:22N 38°44' E 001°25'613.9
2017-Nov-27 10:58N 38°50' E 001°26'510.0
2017-Nov-27 10:29N 38°55' E 001°26'0 0.0
2017-Nov-27 09:44N 38°55' E 001°26'0 0.0
2017-Nov-27 09:18N 38°55' E 001°26'0 0.0
2017-Nov-27 09:00N 38°55' E 001°26'0 0.6
2017-Nov-27 08:20N 38°55' E 001°27'513.8
2017-Nov-27 08:00N 38°50' E 001°26'6 6.2
2017-Nov-27 07:05N 38°44' E 001°25'212.4
2017-Nov-27 06:54N 38°47' E 001°25'512.5
2017-Nov-27 06:30N 38°51' E 001°26'3 6.5
2017-Nov-27 05:59N 38°55' E 001°26'0 0.0
2017-Nov-27 05:29N 38°55' E 001°26'0 0.0
2017-Nov-27 05:00N 38°55' E 001°26'0 0.0
2017-Nov-27 04:30N 38°55' E 001°26'0 0.0
2017-Nov-27 03:56N 38°55' E 001°26'0 0.0
2017-Nov-27 03:30N 38°55' E 001°26'0 0.0
2017-Nov-27 02:57N 38°55' E 001°26'0 0.0
2017-Nov-27 02:26N 38°55' E 001°26'0 0.0
2017-Nov-27 01:59N 38°55' E 001°26'0 0.0
2017-Nov-27 01:28N 38°55' E 001°26'0 0.0
2017-Nov-27 00:58N 38°55' E 001°26'0 0.0
2017-Nov-27 00:30N 38°55' E 001°26'0 0.0
2017-Nov-27 00:00N 38°55' E 001°26'0 0.0
2017-Nov-26 23:30N 38°55' E 001°26'0 0.0
2017-Nov-26 23:00N 38°55' E 001°26'1 1.8
2017-Nov-26 22:30N 38°54' E 001°27'9 8.2
2017-Nov-26 21:22N 38°45' E 001°25'513.0
2017-Nov-26 20:59N 38°50' E 001°26'510.6
2017-Nov-26 20:30N 38°55' E 001°26'0 0.0
2017-Nov-26 20:00N 38°55' E 001°26'0 0.0
2017-Nov-26 19:29N 38°55' E 001°26'0 0.0
2017-Nov-26 18:57N 38°55' E 001°26'0 0.0
2017-Nov-26 18:27N 38°55' E 001°26'0 0.0
2017-Nov-26 18:00N 38°55' E 001°26'0 0.0
2017-Nov-26 17:29N 38°55' E 001°26'0 0.0
2017-Nov-26 17:00N 38°55' E 001°26'0 0.0
2017-Nov-26 16:30N 38°55' E 001°26'0 0.0
2017-Nov-26 16:00N 38°55' E 001°26'0 0.0
2017-Nov-26 15:30N 38°55' E 001°26'0 0.0
2017-Nov-26 14:53N 38°55' E 001°26'0 0.0
2017-Nov-26 14:27N 38°55' E 001°26'0 0.0
2017-Nov-26 13:59N 38°55' E 001°26'0 0.0
2017-Nov-26 13:30N 38°55' E 001°26'0 0.0
2017-Nov-26 12:56N 38°55' E 001°26'0 0.0
2017-Nov-26 12:30N 38°55' E 001°26'0 0.0
2017-Nov-26 11:58N 38°55' E 001°26'0 0.0
2017-Nov-26 11:29N 38°55' E 001°26'0 0.0
2017-Nov-26 11:00N 38°55' E 001°26'0 0.0
2017-Nov-26 10:26N 38°55' E 001°26'0 0.0
2017-Nov-26 09:55N 38°55' E 001°26'0 0.4
2017-Nov-26 09:29N 38°55' E 001°27'612.6
2017-Nov-26 08:59N 38°49' E 001°25'4 3.7
2017-Nov-26 07:54N 38°44' E 001°25'513.4
2017-Nov-26 07:30N 38°50' E 001°26'5 9.5
2017-Nov-26 06:58N 38°55' E 001°26'0 0.0
2017-Nov-26 06:30N 38°55' E 001°26'0 0.0
2017-Nov-26 06:00N 38°55' E 001°26'0 0.0
2017-Nov-26 05:26N 38°55' E 001°26'0 0.0
2017-Nov-26 04:56N 38°55' E 001°26'0 0.0
2017-Nov-26 04:25N 38°55' E 001°26'0 0.0
2017-Nov-26 03:59N 38°55' E 001°26'0 0.0
2017-Nov-26 03:30N 38°55' E 001°26'0 0.0
2017-Nov-26 02:59N 38°55' E 001°26'0 0.0
2017-Nov-26 02:29N 38°55' E 001°26'0 0.0
2017-Nov-26 01:59N 38°55' E 001°26'0 0.0
2017-Nov-26 01:30N 38°55' E 001°26'0 0.0
2017-Nov-26 00:56N 38°55' E 001°26'0 0.0
2017-Nov-26 00:25N 38°55' E 001°26'0 0.0
2017-Nov-25 23:59N 38°55' E 001°26'0 0.0
2017-Nov-25 23:27N 38°55' E 001°26'0 0.0
2017-Nov-25 22:59N 38°55' E 001°26'3 7.3
2017-Nov-25 22:30N 38°51' E 001°26'7 6.1
2017-Nov-25 21:24N 38°45' E 001°25'613.2
2017-Nov-25 20:58N 38°50' E 001°26'4 9.1
2017-Nov-25 20:29N 38°55' E 001°26'0 0.0
2017-Nov-25 19:58N 38°55' E 001°26'0 0.0
2017-Nov-25 19:29N 38°55' E 001°26'0 0.0
2017-Nov-25 18:53N 38°55' E 001°26'0 0.0
2017-Nov-25 18:26N 38°55' E 001°26'0 0.0
2017-Nov-25 17:38N 38°55' E 001°26'0 0.0
2017-Nov-25 17:25N 38°55' E 001°26'0 0.0
2017-Nov-25 16:58N 38°55' E 001°26'0 0.0
2017-Nov-25 16:07N 38°55' E 001°26'0 0.0
2017-Nov-25 15:58N 38°55' E 001°26'0 0.0
2017-Nov-25 15:20N 38°55' E 001°26'0 0.0
2017-Nov-25 14:48N 38°55' E 001°26'0 0.0
2017-Nov-25 14:25N 38°55' E 001°26'0 0.0
2017-Nov-25 13:54N 38°55' E 001°26'0 0.0
2017-Nov-25 13:24N 38°55' E 001°26'0 0.0
2017-Nov-25 12:57N 38°55' E 001°26'0 0.0
2017-Nov-25 12:30N 38°55' E 001°26'0 0.0
2017-Nov-25 11:59N 38°55' E 001°26'0 0.0
2017-Nov-25 10:58N 38°55' E 001°26'0 0.0
2017-Nov-25 09:41N 38°55' E 001°26'0 0.0
2017-Nov-25 09:29N 38°55' E 001°26'0 0.0
2017-Nov-25 08:58N 38°55' E 001°26'1 2.1
2017-Nov-25 08:20N 38°53' E 001°27'514.4
2017-Nov-25 08:00N 38°49' E 001°25'4 4.6
2017-Nov-25 07:03N 38°44' E 001°25'311.6
2017-Nov-25 06:49N 38°47' E 001°25'412.2
2017-Nov-25 06:29N 38°51' E 001°26'4 7.7
2017-Nov-25 05:59N 38°55' E 001°26'0 0.0
2017-Nov-25 05:18N 38°55' E 001°26'0 0.0
2017-Nov-25 04:53N 38°55' E 001°26'0 0.0
2017-Nov-25 04:25N 38°55' E 001°26'0 0.0
2017-Nov-25 02:29N 38°55' E 001°26'0 0.0
2017-Nov-25 01:57N 38°55' E 001°26'0 0.0
2017-Nov-25 01:30N 38°55' E 001°26'0 0.0
2017-Nov-25 00:45N 38°55' E 001°26'0 0.0
2017-Nov-25 00:28N 38°55' E 001°26'0 0.0
2017-Nov-24 23:59N 38°55' E 001°26'0 0.0
2017-Nov-24 23:29N 38°55' E 001°26'0 0.0
2017-Nov-24 22:57N 38°55' E 001°26'3 5.8
2017-Nov-24 22:28N 38°52' E 001°26'4 3.3
2017-Nov-24 21:10N 38°48' E 001°25'213.9
2017-Nov-24 21:00N 38°50' E 001°26'5 3.2
2017-Nov-24 19:32N 38°55' E 001°26'0 0.0
2017-Nov-24 19:28N 38°55' E 001°26'0 0.0
2017-Nov-24 18:41N 38°55' E 001°26'0 0.3
2017-Nov-24 18:24N 38°55' E 001°26'612.8
2017-Nov-24 17:56N 38°49' E 001°25'5 5.0
2017-Nov-24 17:00N 38°44' E 001°25'611.1
2017-Nov-24 16:29N 38°50' E 001°26'5 9.4
2017-Nov-24 15:59N 38°55' E 001°26'0 0.0
2017-Nov-24 15:09N 38°55' E 001°26'0 0.0
2017-Nov-24 14:57N 38°55' E 001°26'0 0.0
2017-Nov-24 14:26N 38°55' E 001°26'0 0.0
2017-Nov-24 13:59N 38°55' E 001°26'0 0.0
2017-Nov-24 13:22N 38°55' E 001°26'0 0.0
2017-Nov-24 12:59N 38°55' E 001°26'510.4
2017-Nov-24 12:30N 38°50' E 001°26'1 0.4
2017-Nov-24 11:00N 38°50' E 001°26'4 5.5
2017-Nov-24 10:11N 38°55' E 001°26'0 0.0
2017-Nov-24 10:00N 38°55' E 001°26'0 0.0
2017-Nov-24 09:27N 38°55' E 001°26'0 0.0
2017-Nov-24 08:57N 38°55' E 001°26'0 0.0
2017-Nov-24 08:29N 38°55' E 001°26'4 8.9
2017-Nov-24 08:00N 38°51' E 001°26'613.3
2017-Nov-24 07:30N 38°44' E 001°25'3 4.4
2017-Nov-24 06:49N 38°47' E 001°25'412.1
2017-Nov-24 06:30N 38°51' E 001°26'4 7.9
2017-Nov-24 05:59N 38°55' E 001°26'0 0.0
2017-Nov-24 05:27N 38°55' E 001°26'0 0.0
2017-Nov-24 04:59N 38°55' E 001°26'0 0.0
2017-Nov-24 04:29N 38°55' E 001°26'0 0.0
2017-Nov-24 03:56N 38°55' E 001°26'0 0.0
2017-Nov-24 03:30N 38°55' E 001°26'0 0.0
2017-Nov-24 02:56N 38°55' E 001°26'0 0.0
2017-Nov-24 02:30N 38°55' E 001°26'0 0.0
2017-Nov-24 02:00N 38°55' E 001°26'0 0.0
2017-Nov-24 01:26N 38°55' E 001°26'0 0.0
2017-Nov-24 00:58N 38°55' E 001°26'0 0.0
2017-Nov-24 00:28N 38°55' E 001°26'0 0.0
2017-Nov-23 23:59N 38°55' E 001°26'0 0.0
2017-Nov-23 23:25N 38°55' E 001°26'0 0.0
2017-Nov-23 22:57N 38°55' E 001°26'1 2.4
2017-Nov-23 22:29N 38°54' E 001°27'714.1
2017-Nov-23 21:59N 38°47' E 001°25'2 3.7
2017-Nov-23 21:23N 38°45' E 001°25'613.1
2017-Nov-23 20:56N 38°50' E 001°26'510.2
2017-Nov-23 20:30N 38°55' E 001°26'0 0.0
2017-Nov-23 19:56N 38°55' E 001°26'0 0.0
2017-Nov-23 19:29N 38°55' E 001°26'0 0.0
2017-Nov-23 19:00N 38°55' E 001°26'0 0.0
2017-Nov-23 18:29N 38°55' E 001°26'611.6
2017-Nov-23 17:58N 38°49' E 001°25'5 9.5
2017-Nov-23 17:28N 38°44' E 001°25'2 2.9
2017-Nov-23 16:50N 38°46' E 001°25'412.0
2017-Nov-23 16:28N 38°50' E 001°26'5 9.9
2017-Nov-23 16:00N 38°55' E 001°26'0 0.0
2017-Nov-23 15:21N 38°55' E 001°26'0 0.0
2017-Nov-23 14:55N 38°55' E 001°26'0 0.0
2017-Nov-23 13:18N 38°55' E 001°26'0 0.3
2017-Nov-23 12:58N 38°55' E 001°26'611.5
2017-Nov-23 12:30N 38°49' E 001°26'5 4.2
2017-Nov-23 11:22N 38°45' E 001°25'513.2
2017-Nov-23 10:59N 38°50' E 001°26'5 6.3
2017-Nov-23 10:10N 38°55' E 001°26'0 0.0
2017-Nov-23 09:59N 38°55' E 001°26'0 0.0
2017-Nov-23 09:28N 38°55' E 001°26'0 0.1
2017-Nov-23 08:20N 38°55' E 001°27'412.6
2017-Nov-23 08:01N 38°51' E 001°26'6 6.3
2017-Nov-23 07:01N 38°44' E 001°25'0 6.8
2017-Nov-23 06:59N 38°45' E 001°25'611.8
2017-Nov-23 06:30N 38°50' E 001°26'5 8.8
2017-Nov-23 05:59N 38°55' E 001°26'0 0.0
2017-Nov-23 05:28N 38°55' E 001°26'0 0.0
2017-Nov-23 04:59N 38°55' E 001°26'0 0.0
2017-Nov-23 04:29N 38°55' E 001°26'0 0.0
2017-Nov-23 03:56N 38°55' E 001°26'0 0.0
2017-Nov-23 03:30N 38°55' E 001°26'0 0.0
2017-Nov-23 03:00N 38°55' E 001°26'0 0.0
2017-Nov-23 02:29N 38°55' E 001°26'0 0.0
2017-Nov-23 01:59N 38°55' E 001°26'0 0.0
2017-Nov-23 01:30N 38°55' E 001°26'0 0.0
2017-Nov-23 00:58N 38°55' E 001°26'0 0.0
2017-Nov-23 00:30N 38°55' E 001°26'0 0.0
2017-Nov-22 23:58N 38°55' E 001°26'  

Dump ship's entire track history